This is the latest recevied weather packets stored in our database for station/object DL2BWO-13. If no packets are shown the sender has not sent any weather packets the latest 10 day(s).
| Time | Temp. | Humidity | Pressure | Rain* | Wind** | Luminosity | Snow |
|---|---|---|---|---|---|---|---|
| 1777697515 | 8.89° C | 96% | 735.8 hPa | 0 mm | - | - | - |
| 1777694707 | 7.22° C | 89% | 733.9 hPa | 0 mm | - | - | - |
| 1777690963 | 7.78° C | 85% | 734.6 hPa | 0 mm | - | - | - |
| 1777690027 | 8.33° C | 84% | 734.7 hPa | 0 mm | - | - | - |
| 1777688156 | 8.33° C | 84% | 735.2 hPa | 0 mm | - | - | - |
| 1777687220 | 8.89° C | 83% | 735.4 hPa | 0 mm | - | - | - |
| 1777686284 | 8.89° C | 83% | 735.7 hPa | 0 mm | - | - | - |
| 1777685348 | 8.89° C | 85% | 735.8 hPa | 0 mm | - | - | - |
| 1777684412 | 9.44° C | 81% | 736.2 hPa | 0 mm | - | - | - |
| 1777683476 | 9.44° C | 80% | 736.3 hPa | 0 mm | - | - | - |
| 1777682540 | 10° C | 78% | 736.7 hPa | 0 mm | - | - | - |
| 1777681604 | 10° C | 78% | 736.9 hPa | 0 mm | - | - | - |
| 1777678796 | 10.56° C | 76% | 737.7 hPa | 0 mm | - | - | - |
| 1777677860 | 11.11° C | 77% | 737.8 hPa | 0 mm | - | - | - |
| 1777676924 | 11.67° C | 74% | 738.6 hPa | 0 mm | - | - | - |
| 1777675988 | 11.67° C | 73% | 738.7 hPa | 0 mm | - | - | - |
| 1777675052 | 12.22° C | 71% | 739.2 hPa | 0 mm | - | - | - |
| 1777674117 | 12.22° C | 71% | 739.3 hPa | 0 mm | - | - | - |
| 1777671308 | 13.33° C | 67% | 740.3 hPa | 0 mm | - | - | - |
| 1777669436 | 13.89° C | 64% | 741.5 hPa | 0 mm | - | - | - |
| 1777668501 | 14.44° C | 62% | 742 hPa | 0 mm | - | - | - |
| 1777667564 | 15° C | 62% | 742.3 hPa | 0 mm | - | - | - |
| 1777666628 | 15.56° C | 61% | 742.8 hPa | 0 mm | - | - | - |
| 1777663821 | 16.67° C | 57% | 744.6 hPa | 0 mm | - | - | - |
| 1777662885 | 16.67° C | 57% | 744.4 hPa | 0 mm | - | - | - |
* Rain latest hour (hover to see other rain measurements)
** Current wind speed in m/s (hover to see current wind gust speed)